Time;durP1;ratioP1;P1;durP2;ratioP2;P2;SDS_P1;SDS_P2;PMS_P1;PMS_P2;Temp;Humidity;BMP_temperature;BMP_pressure;BME280_temperature;BME280_humidity;BME280_pressure;Samples;Min_cycle;Max_cycle;Signal;HPM_P1;HPM_P2
2024/01/17 00:00:04;;;;;;;13.68;7.30;;;0.10;99.90;;;;;;5063480;28;20071;-85
2024/01/17 00:02:30;;;;;;;20.17;7.95;;;0.10;99.90;;;;;;5059465;28;20031;-84
2024/01/17 00:04:55;;;;;;;18.52;8.05;;;0.10;99.90;;;;;;5053803;28;20107;-84
2024/01/17 00:07:21;;;;;;;20.10;7.90;;;0.00;99.90;;;;;;5059695;28;20538;-83
2024/01/17 00:09:47;;;;;;;17.25;7.53;;;0.10;99.90;;;;;;5063154;28;20029;-84
2024/01/17 00:12:13;;;;;;;16.58;7.72;;;0.00;99.90;;;;;;5056369;28;20394;-85
2024/01/17 00:14:39;;;;;;;14.32;7.50;;;0.00;99.90;;;;;;5055808;28;20108;-84
2024/01/17 00:17:04;;;;;;;13.77;7.57;;;0.00;99.90;;;;;;5063020;28;20089;-84
2024/01/17 00:19:31;;;;;;;15.02;8.18;;;0.00;99.90;;;;;;5060533;28;20542;-84
2024/01/17 00:21:57;;;;;;;14.90;8.23;;;0.00;99.90;;;;;;5053544;28;20047;-83
2024/01/17 00:24:23;;;;;;;14.35;7.28;;;0.00;99.90;;;;;;5059671;28;20044;-84
2024/01/17 00:26:48;;;;;;;14.65;7.18;;;0.00;99.90;;;;;;5062425;28;20390;-84
2024/01/17 00:29:15;;;;;;;14.40;7.05;;;0.00;99.90;;;;;;5056530;28;20025;-85
2024/01/17 00:31:42;;;;;;;15.25;7.32;;;-0.10;99.90;;;;;;5054951;28;20029;-84
2024/01/17 00:34:08;;;;;;;13.80;7.22;;;-0.10;99.90;;;;;;5053124;28;20390;-83
2024/01/17 00:36:33;;;;;;;17.38;7.63;;;-0.10;99.90;;;;;;5056303;28;20028;-84
2024/01/17 00:38:59;;;;;;;13.32;7.50;;;-0.10;99.90;;;;;;5062881;28;20139;-84
2024/01/17 00:41:25;;;;;;;14.38;6.60;;;-0.10;99.90;;;;;;5064857;28;20428;-83
2024/01/17 00:43:50;;;;;;;14.80;6.93;;;-0.10;99.90;;;;;;5054516;28;20371;-83
2024/01/17 00:46:17;;;;;;;12.85;6.75;;;-0.20;99.90;;;;;;5060452;28;20584;-83
2024/01/17 00:48:42;;;;;;;13.90;6.40;;;-0.20;99.90;;;;;;5052702;28;20079;-83
2024/01/17 00:51:08;;;;;;;13.77;6.60;;;-0.10;99.90;;;;;;5062049;28;20020;-83
2024/01/17 00:53:34;;;;;;;13.90;7.05;;;-0.10;99.90;;;;;;5056612;28;20625;-83
2024/01/17 00:56:00;;;;;;;13.82;6.10;;;-0.10;99.90;;;;;;5054427;28;20032;-83
2024/01/17 00:58:25;;;;;;;13.13;7.03;;;-0.10;99.90;;;;;;5062163;28;20108;-83
2024/01/17 01:00:51;;;;;;;14.48;7.05;;;-0.10;99.90;;;;;;5060025;28;20123;-83
2024/01/17 01:03:16;;;;;;;17.58;7.43;;;-0.10;99.90;;;;;;5052343;28;20392;-83
2024/01/17 01:05:42;;;;;;;15.52;7.63;;;-0.10;99.90;;;;;;5058226;28;20017;-83
2024/01/17 01:08:08;;;;;;;14.98;6.93;;;-0.20;99.90;;;;;;5060366;28;20029;-83
2024/01/17 01:10:33;;;;;;;13.85;6.65;;;-0.20;99.90;;;;;;5056148;28;20028;-83
2024/01/17 01:12:59;;;;;;;13.73;6.50;;;-0.20;99.90;;;;;;5055208;28;20112;-83
2024/01/17 01:15:25;;;;;;;12.70;6.13;;;-0.20;99.90;;;;;;5053796;28;20032;-82
2024/01/17 01:17:50;;;;;;;12.65;6.38;;;-0.20;99.90;;;;;;5054186;28;20062;-83
2024/01/17 01:20:16;;;;;;;14.48;6.40;;;-0.20;99.90;;;;;;5060185;28;20013;-83
2024/01/17 01:22:42;;;;;;;14.50;5.70;;;-0.20;99.90;;;;;;5057161;28;20052;-83
2024/01/17 01:25:08;;;;;;;13.02;5.82;;;-0.20;99.90;;;;;;5052075;28;20029;-82
2024/01/17 01:27:34;;;;;;;12.70;6.35;;;-0.20;99.90;;;;;;5059632;28;20035;-82
2024/01/17 01:29:59;;;;;;;12.80;6.35;;;-0.20;99.90;;;;;;5061206;28;20067;-82
2024/01/17 01:32:25;;;;;;;14.48;6.82;;;-0.10;99.90;;;;;;5053121;28;20027;-82
2024/01/17 01:34:51;;;;;;;13.75;6.30;;;-0.20;99.90;;;;;;5055317;28;20043;-82
2024/01/17 01:37:16;;;;;;;12.82;7.47;;;-0.20;99.90;;;;;;5060750;28;20099;-82
2024/01/17 01:39:42;;;;;;;15.93;6.72;;;-0.20;99.90;;;;;;5056681;28;20515;-82
2024/01/17 01:42:08;;;;;;;11.20;6.32;;;-0.20;99.90;;;;;;5065066;28;20028;-82
2024/01/17 01:44:33;;;;;;;12.10;6.65;;;-0.20;99.90;;;;;;5055019;28;20032;-82
2024/01/17 01:46:59;;;;;;;16.52;6.28;;;-0.20;99.90;;;;;;5053253;28;20047;-82
2024/01/17 01:49:26;;;;;;;12.18;5.93;;;-0.20;99.90;;;;;;5052939;28;20025;-82
2024/01/17 01:51:53;;;;;;;11.82;6.05;;;-0.20;99.90;;;;;;5059124;28;20025;-82
2024/01/17 01:54:21;;;;;;;12.73;5.65;;;-0.30;99.90;;;;;;5061554;28;20024;-82
2024/01/17 01:56:48;;;;;;;11.25;5.68;;;-0.30;99.90;;;;;;5053235;28;20020;-82
2024/01/17 01:59:19;;;;;;;9.43;5.90;;;-0.30;99.90;;;;;;5054387;28;20073;-82
2024/01/17 02:01:46;;;;;;;13.40;6.25;;;-0.30;99.90;;;;;;5060730;28;20044;-82
2024/01/17 02:04:12;;;;;;;17.30;6.65;;;-0.40;99.90;;;;;;5057173;28;20032;-82
2024/01/17 02:06:39;;;;;;;13.50;6.20;;;-0.40;99.90;;;;;;5052888;28;20020;-82
2024/01/17 02:09:05;;;;;;;12.52;6.32;;;-0.40;99.90;;;;;;5057099;28;20086;-82
2024/01/17 02:11:31;;;;;;;14.60;6.13;;;-0.50;99.90;;;;;;5060651;28;20016;-83
2024/01/17 02:13:58;;;;;;;14.32;6.10;;;-0.60;99.90;;;;;;5054904;28;20082;-83
2024/01/17 02:16:24;;;;;;;14.52;6.32;;;-0.60;99.90;;;;;;5051443;28;20581;-82
2024/01/17 02:18:50;;;;;;;12.07;5.88;;;-0.60;99.90;;;;;;5059346;28;20013;-82
2024/01/17 02:21:16;;;;;;;13.40;6.18;;;-0.70;99.90;;;;;;5057538;28;20028;-82
2024/01/17 02:23:42;;;;;;;11.68;6.40;;;-0.70;99.90;;;;;;5052370;28;20049;-82
2024/01/17 02:26:08;;;;;;;11.82;5.90;;;-0.70;99.90;;;;;;5056759;28;20036;-83
2024/01/17 02:28:34;;;;;;;12.93;6.00;;;-0.70;99.90;;;;;;5060375;28;20056;-83
2024/01/17 02:31:01;;;;;;;12.57;6.35;;;-0.70;99.90;;;;;;5055212;28;20027;-82
2024/01/17 02:33:27;;;;;;;13.75;6.40;;;-0.70;99.90;;;;;;5052373;28;20108;-83
2024/01/17 02:35:53;;;;;;;15.77;6.40;;;-0.70;99.90;;;;;;5060204;28;20107;-83
2024/01/17 02:38:19;;;;;;;11.73;6.18;;;-0.70;99.90;;;;;;5058919;28;20025;-83
2024/01/17 02:40:45;;;;;;;10.85;5.90;;;-0.70;99.90;;;;;;5058276;28;20028;-83
2024/01/17 02:43:10;;;;;;;14.55;6.50;;;-0.70;99.90;;;;;;5055844;28;20059;-83
2024/01/17 02:45:36;;;;;;;13.55;6.80;;;-0.70;99.90;;;;;;5050347;28;20024;-82
2024/01/17 02:48:02;;;;;;;11.30;6.25;;;-0.70;99.90;;;;;;5066390;28;20811;-82
2024/01/17 02:50:28;;;;;;;14.63;6.30;;;-0.70;99.90;;;;;;5059100;28;20021;-82
2024/01/17 02:52:54;;;;;;;14.20;6.32;;;-0.70;99.90;;;;;;5064216;28;20044;-82
2024/01/17 02:55:19;;;;;;;18.15;6.95;;;-0.70;99.90;;;;;;5059181;28;20024;-82
2024/01/17 02:57:45;;;;;;;13.00;6.57;;;-0.70;99.90;;;;;;5056305;28;20032;-82
2024/01/17 03:00:12;;;;;;;13.15;6.47;;;-0.70;99.90;;;;;;5064111;28;20033;-82
2024/01/17 03:02:38;;;;;;;12.63;5.90;;;-0.70;99.90;;;;;;5062678;28;20025;-82
2024/01/17 03:05:05;;;;;;;13.82;7.10;;;-0.70;99.90;;;;;;5056519;28;20020;-83
2024/01/17 03:07:31;;;;;;;14.60;6.82;;;-0.70;99.90;;;;;;5059421;28;20020;-82
2024/01/17 03:09:57;;;;;;;14.38;7.13;;;-0.70;99.90;;;;;;5064532;28;20409;-82
2024/01/17 03:12:22;;;;;;;15.80;6.57;;;-0.70;99.90;;;;;;5058582;28;20481;-82
2024/01/17 03:14:48;;;;;;;16.13;7.30;;;-0.70;99.90;;;;;;5056234;28;20025;-82
2024/01/17 03:17:15;;;;;;;17.23;7.53;;;-0.70;99.90;;;;;;5063197;28;20048;-81
2024/01/17 03:19:43;;;;;;;12.63;6.43;;;-0.70;99.90;;;;;;5062967;28;20028;-84
2024/01/17 03:22:09;;;;;;;16.45;6.78;;;-0.80;99.90;;;;;;5055858;28;20028;-82
2024/01/17 03:24:38;;;;;;;13.10;6.38;;;-0.80;99.90;;;;;;5058913;28;20033;-82
2024/01/17 03:27:04;;;;;;;10.93;6.25;;;-0.70;99.90;;;;;;5063913;28;20021;-82
2024/01/17 03:29:29;;;;;;;14.27;6.88;;;-0.80;99.90;;;;;;5059795;28;20032;-83
2024/01/17 03:31:55;;;;;;;12.65;6.00;;;-0.80;99.90;;;;;;5054150;28;20035;-82
2024/01/17 03:34:21;;;;;;;15.43;6.68;;;-0.70;99.90;;;;;;5062826;28;20469;-83
2024/01/17 03:36:46;;;;;;;14.10;5.97;;;-0.80;99.90;;;;;;5063276;28;20024;-82
2024/01/17 03:39:13;;;;;;;17.00;6.82;;;-0.70;99.90;;;;;;5068108;28;20490;-82
2024/01/17 03:41:39;;;;;;;11.57;6.15;;;-0.80;99.90;;;;;;5069667;28;20027;-82
2024/01/17 03:44:04;;;;;;;12.43;6.63;;;-0.80;99.90;;;;;;5055725;28;20016;-81
2024/01/17 03:46:30;;;;;;;12.88;5.70;;;-0.80;99.90;;;;;;5059044;28;20485;-82
2024/01/17 03:48:56;;;;;;;10.93;6.05;;;-0.80;99.90;;;;;;5052029;28;20037;-82
2024/01/17 03:51:21;;;;;;;12.85;6.35;;;-0.80;99.90;;;;;;5063855;28;20032;-82
2024/01/17 03:53:47;;;;;;;12.23;5.72;;;-0.70;99.90;;;;;;5057945;28;20024;-81
2024/01/17 03:56:13;;;;;;;14.25;6.85;;;-0.70;99.90;;;;;;5068373;28;20051;-82
2024/01/17 03:58:40;;;;;;;10.50;5.80;;;-0.70;99.90;;;;;;5057127;28;20111;-82
2024/01/17 04:01:05;;;;;;;14.73;6.18;;;-0.70;99.90;;;;;;5054132;28;20134;-82
2024/01/17 04:03:31;;;;;;;11.82;5.75;;;-0.70;99.90;;;;;;5061919;28;20104;-82
2024/01/17 04:05:57;;;;;;;9.82;5.88;;;-0.70;99.90;;;;;;5061502;28;20027;-82
2024/01/17 04:08:25;;;;;;;11.48;5.90;;;-0.60;99.90;;;;;;5053729;28;20036;-82
2024/01/17 04:10:50;;;;;;;13.48;7.18;;;-0.60;99.90;;;;;;5059426;28;20033;-83
2024/01/17 04:13:16;;;;;;;10.52;6.07;;;-0.50;99.90;;;;;;5062466;28;20027;-82
2024/01/17 04:15:42;;;;;;;11.95;6.70;;;-0.50;99.90;;;;;;5057967;28;20035;-81
2024/01/17 04:18:08;;;;;;;13.88;6.07;;;-0.50;99.90;;;;;;5055219;28;20079;-82
2024/01/17 04:20:34;;;;;;;15.55;6.70;;;-0.60;99.90;;;;;;5063855;28;20032;-82
2024/01/17 04:23:03;;;;;;;11.55;6.63;;;-0.70;99.90;;;;;;5061863;28;20090;-82
2024/01/17 04:25:28;;;;;;;11.80;6.10;;;-0.70;99.90;;;;;;5055829;28;20028;-82
2024/01/17 04:27:54;;;;;;;12.68;6.40;;;-0.70;99.90;;;;;;5058743;28;20021;-83
2024/01/17 04:30:19;;;;;;;15.35;6.30;;;-0.80;99.90;;;;;;5063862;28;20449;-82
2024/01/17 04:32:45;;;;;;;12.20;5.68;;;-0.80;99.90;;;;;;5056366;28;20456;-82
2024/01/17 04:35:11;;;;;;;12.93;5.68;;;-0.70;99.90;;;;;;5054818;28;20036;-82
2024/01/17 04:37:39;;;;;;;9.82;5.13;;;-0.70;99.90;;;;;;5055763;28;20074;-82
2024/01/17 04:40:06;;;;;;;10.25;6.03;;;-0.70;99.90;;;;;;5055316;28;20033;-82
2024/01/17 04:42:32;;;;;;;11.20;6.13;;;-0.70;99.90;;;;;;5053940;28;20027;-82
2024/01/17 04:44:58;;;;;;;11.85;6.15;;;-0.70;99.90;;;;;;5069995;28;20017;-82
2024/01/17 04:47:23;;;;;;;12.40;6.00;;;-0.70;99.90;;;;;;5055510;28;20529;-82
2024/01/17 04:49:49;;;;;;;13.48;5.82;;;-0.70;99.90;;;;;;5055670;28;20033;-82
2024/01/17 04:52:17;;;;;;;11.75;6.32;;;-0.70;99.90;;;;;;5059092;28;20116;-82
2024/01/17 04:54:43;;;;;;;13.75;6.68;;;-0.60;99.90;;;;;;5065124;28;20029;-82
2024/01/17 04:57:09;;;;;;;13.98;7.40;;;-0.60;99.90;;;;;;5059821;28;20444;-82
2024/01/17 04:59:36;;;;;;;12.35;6.60;;;-0.60;99.90;;;;;;5058297;28;20029;-82
2024/01/17 05:02:02;;;;;;;11.88;6.07;;;-0.60;99.90;;;;;;5065798;28;20040;-82
2024/01/17 05:04:27;;;;;;;12.20;6.32;;;-0.60;99.90;;;;;;5066654;28;20474;-82
2024/01/17 05:06:53;;;;;;;12.20;6.07;;;-0.60;99.90;;;;;;5060837;28;20080;-82
2024/01/17 05:09:19;;;;;;;13.93;6.65;;;-0.60;99.90;;;;;;5060738;28;20470;-82
2024/01/17 05:11:45;;;;;;;12.85;6.00;;;-0.60;99.90;;;;;;5056626;28;20548;-82
2024/01/17 05:14:16;;;;;;;12.57;6.30;;;-0.60;99.90;;;;;;5064322;28;20017;-82
2024/01/17 05:16:42;;;;;;;14.73;6.05;;;-0.50;99.90;;;;;;5065501;28;20022;-82
2024/01/17 05:19:08;;;;;;;11.32;6.15;;;-0.60;99.90;;;;;;5060572;28;20035;-82
2024/01/17 05:21:33;;;;;;;14.18;6.78;;;-0.60;99.90;;;;;;5059089;28;20025;-82
2024/01/17 05:23:59;;;;;;;14.80;6.25;;;-0.60;99.90;;;;;;5073540;28;20343;-82
2024/01/17 05:26:25;;;;;;;9.68;5.88;;;-0.70;99.90;;;;;;5060833;28;20037;-81
2024/01/17 05:28:51;;;;;;;16.33;7.78;;;-0.60;99.90;;;;;;5065666;28;20025;-82
2024/01/17 05:31:17;;;;;;;11.27;6.20;;;-0.60;99.90;;;;;;5060125;28;20029;-82
2024/01/17 05:33:44;;;;;;;15.90;6.15;;;-0.60;99.90;;;;;;5067499;28;20027;-82
2024/01/17 05:36:09;;;;;;;13.93;7.07;;;-0.60;99.90;;;;;;5059355;28;20028;-81
2024/01/17 05:38:35;;;;;;;14.77;6.72;;;-0.60;99.90;;;;;;5058157;28;20585;-82
2024/01/17 05:41:01;;;;;;;12.18;6.15;;;-0.70;99.90;;;;;;5071740;28;20024;-82
2024/01/17 05:43:27;;;;;;;14.35;6.22;;;-0.70;99.90;;;;;;5057903;28;20417;-82
2024/01/17 05:45:52;;;;;;;11.85;6.25;;;-0.80;99.90;;;;;;5054623;28;20021;-81
2024/01/17 05:48:18;;;;;;;15.45;6.60;;;-0.80;99.90;;;;;;5069374;28;20028;-83
2024/01/17 05:50:45;;;;;;;14.95;7.28;;;-0.80;99.90;;;;;;5059510;28;20094;-83
2024/01/17 05:53:13;;;;;;;17.10;6.82;;;-0.80;99.90;;;;;;5066245;28;20096;-83
2024/01/17 05:55:39;;;;;;;17.65;7.28;;;-0.90;99.90;;;;;;5063617;28;20020;-83
2024/01/17 05:58:05;;;;;;;15.20;6.93;;;-0.90;99.90;;;;;;5055694;28;20550;-82
2024/01/17 06:00:31;;;;;;;12.40;6.20;;;-0.90;99.90;;;;;;5061625;28;20029;-83
2024/01/17 06:02:56;;;;;;;12.38;6.65;;;-0.90;99.90;;;;;;5064800;28;20031;-83
2024/01/17 06:05:22;;;;;;;14.80;6.85;;;-0.90;99.90;;;;;;5057186;28;20482;-83
2024/01/17 06:07:48;;;;;;;12.20;5.80;;;-0.90;99.90;;;;;;5058405;28;20036;-82
2024/01/17 06:10:14;;;;;;;12.48;6.60;;;-0.90;99.90;;;;;;5070972;28;20035;-83
2024/01/17 06:12:43;;;;;;;13.20;7.00;;;-0.90;99.90;;;;;;5060794;28;20025;-83
2024/01/17 06:15:09;;;;;;;15.95;7.03;;;-0.80;99.90;;;;;;5064133;28;20033;-83
2024/01/17 06:17:35;;;;;;;12.73;6.85;;;-0.80;99.90;;;;;;5061092;28;20354;-83
2024/01/17 06:20:01;;;;;;;11.75;6.28;;;-0.80;99.90;;;;;;5056325;28;20031;-83
2024/01/17 06:22:27;;;;;;;15.25;7.95;;;-0.80;99.90;;;;;;5066396;28;20044;-85
2024/01/17 06:24:53;;;;;;;11.50;6.35;;;-0.80;99.90;;;;;;5052786;28;20029;-83
2024/01/17 06:27:18;;;;;;;12.73;6.25;;;-0.80;99.90;;;;;;5069815;28;20080;-83
2024/01/17 06:29:45;;;;;;;12.10;6.47;;;-0.80;99.90;;;;;;5071723;28;20537;-84
2024/01/17 06:32:15;;;;;;;17.77;7.00;;;-0.80;99.90;;;;;;5066263;28;20084;-84
2024/01/17 06:34:41;;;;;;;13.18;6.40;;;-0.80;99.90;;;;;;5064713;28;20032;-84
2024/01/17 06:37:06;;;;;;;16.10;6.95;;;-0.80;99.90;;;;;;5064895;28;20025;-83
2024/01/17 06:39:33;;;;;;;10.80;6.03;;;-0.80;99.90;;;;;;5057997;28;20039;-83
2024/01/17 06:41:59;;;;;;;12.80;6.38;;;-0.80;99.90;;;;;;5068600;28;20048;-83
2024/01/17 06:44:27;;;;;;;13.32;7.78;;;-0.70;99.90;;;;;;5056170;28;20101;-83
2024/01/17 06:46:53;;;;;;;16.63;8.43;;;-0.70;99.90;;;;;;5058046;28;20386;-84
2024/01/17 06:49:19;;;;;;;15.35;7.18;;;-0.80;99.90;;;;;;5066156;28;20024;-84
2024/01/17 06:51:45;;;;;;;15.18;6.78;;;-0.80;99.90;;;;;;5056642;28;20043;-83
2024/01/17 06:54:11;;;;;;;15.13;7.35;;;-0.80;99.90;;;;;;5057708;28;20027;-84
2024/01/17 06:56:37;;;;;;;15.10;8.02;;;-0.80;99.90;;;;;;5059355;28;20025;-84
2024/01/17 06:59:04;;;;;;;12.70;7.60;;;-0.80;99.90;;;;;;5056342;28;20079;-84
2024/01/17 07:01:29;;;;;;;13.98;7.00;;;-0.80;99.90;;;;;;5067444;28;20029;-84
2024/01/17 07:03:55;;;;;;;13.25;7.15;;;-0.80;99.90;;;;;;5059375;28;20013;-84
2024/01/17 07:06:21;;;;;;;14.38;6.72;;;-0.80;99.90;;;;;;5062468;28;20108;-84
2024/01/17 07:08:47;;;;;;;12.10;7.35;;;-0.90;99.90;;;;;;5067031;28;20020;-84
2024/01/17 07:11:13;;;;;;;14.73;7.43;;;-0.90;99.90;;;;;;5054049;28;20033;-84
2024/01/17 07:13:39;;;;;;;15.88;7.40;;;-0.90;99.90;;;;;;5056167;28;20163;-83
2024/01/17 07:16:07;;;;;;;12.77;7.25;;;-1.00;99.90;;;;;;5056049;28;20069;-84
2024/01/17 07:18:33;;;;;;;12.10;7.00;;;-1.00;99.90;;;;;;5068233;28;20023;-84
2024/01/17 07:21:05;;;;;;;13.75;7.00;;;-1.00;99.90;;;;;;5067724;28;20478;-84
2024/01/17 07:23:32;;;;;;;11.95;7.25;;;-1.00;99.90;;;;;;5069822;28;20109;-84
2024/01/17 07:25:58;;;;;;;12.45;6.72;;;-1.00;99.90;;;;;;5057345;28;20021;-84
2024/01/17 07:28:24;;;;;;;13.02;6.90;;;-1.00;99.90;;;;;;5071059;28;20028;-84
2024/01/17 07:30:50;;;;;;;13.02;7.35;;;-1.00;99.90;;;;;;5070722;28;20034;-84
2024/01/17 07:33:16;;;;;;;13.40;6.53;;;-1.00;99.90;;;;;;5071928;28;20363;-85
2024/01/17 07:35:41;;;;;;;14.13;6.57;;;-1.00;99.90;;;;;;5059566;28;20025;-85
2024/01/17 07:38:07;;;;;;;12.05;7.05;;;-1.00;99.90;;;;;;5065536;28;20040;-83
2024/01/17 07:40:33;;;;;;;11.68;6.85;;;-0.90;99.90;;;;;;5071086;28;20031;-85
2024/01/17 07:42:59;;;;;;;16.55;7.40;;;-1.00;99.90;;;;;;5069795;28;20470;-84
2024/01/17 07:45:25;;;;;;;15.40;6.35;;;-1.00;99.90;;;;;;5075076;28;20032;-85
2024/01/17 07:47:50;;;;;;;13.18;7.03;;;-0.90;99.90;;;;;;5068971;28;20032;-85
2024/01/17 07:50:16;;;;;;;14.35;6.72;;;-1.00;99.90;;;;;;5051592;28;20035;-85
2024/01/17 07:52:42;;;;;;;12.90;6.97;;;-1.00;99.90;;;;;;5070241;28;20044;-85
2024/01/17 07:55:08;;;;;;;16.38;7.22;;;-1.00;99.90;;;;;;5066772;28;20049;-84
2024/01/17 07:57:34;;;;;;;15.38;7.70;;;-1.00;99.90;;;;;;5070665;28;20032;-86
2024/01/17 07:59:59;;;;;;;15.25;7.20;;;-1.00;99.90;;;;;;5068312;28;20021;-85
2024/01/17 08:02:25;;;;;;;15.15;7.38;;;-1.00;99.90;;;;;;5069159;28;20025;-86
2024/01/17 08:04:52;;;;;;;12.27;6.55;;;-1.00;99.90;;;;;;5070306;28;20103;-86
2024/01/17 08:07:24;;;;;;;13.98;6.75;;;-1.00;99.90;;;;;;5071985;28;20024;-86
2024/01/17 08:09:51;;;;;;;12.88;6.03;;;-1.00;99.90;;;;;;5055649;28;20048;-85
2024/01/17 08:12:17;;;;;;;14.90;6.20;;;-1.00;99.90;;;;;;5063052;28;20482;-81
2024/01/17 08:14:42;;;;;;;15.90;7.43;;;-1.00;99.90;;;;;;5065860;28;20108;-86
2024/01/17 08:17:08;;;;;;;15.30;7.13;;;-1.00;99.90;;;;;;5058716;28;20060;-84
2024/01/17 08:19:34;;;;;;;15.27;7.43;;;-1.00;99.90;;;;;;5060159;28;20025;-86
2024/01/17 08:22:01;;;;;;;11.00;6.35;;;-1.10;99.90;;;;;;5066895;28;20017;-86
2024/01/17 08:24:27;;;;;;;13.60;7.43;;;-1.10;99.90;;;;;;5067269;28;20045;-86
2024/01/17 08:26:52;;;;;;;14.43;7.63;;;-1.10;99.90;;;;;;5076425;28;20056;-83
2024/01/17 08:29:19;;;;;;;12.30;7.25;;;-1.00;99.90;;;;;;5072579;28;20035;-87
2024/01/17 08:31:44;;;;;;;14.65;7.15;;;-1.00;99.90;;;;;;5072958;28;20035;-87
2024/01/17 08:34:11;;;;;;;12.32;7.25;;;-1.00;99.90;;;;;;5057355;28;20082;-86
2024/01/17 08:36:37;;;;;;;12.32;6.95;;;-1.00;99.90;;;;;;5072996;28;20016;-86
2024/01/17 08:39:05;;;;;;;13.05;6.50;;;-0.90;99.90;;;;;;5059459;28;20492;-89
2024/01/17 08:41:30;;;;;;;16.83;7.40;;;-0.90;99.90;;;;;;5071462;28;20032;-86
2024/01/17 08:43:56;;;;;;;12.07;7.15;;;-0.80;99.90;;;;;;5064218;28;20031;-85
2024/01/17 08:46:22;;;;;;;11.70;6.80;;;-0.80;99.90;;;;;;5067412;28;20012;-87
2024/01/17 08:48:47;;;;;;;12.82;7.60;;;-0.80;99.90;;;;;;5069918;28;20559;-86
2024/01/17 08:51:13;;;;;;;12.57;6.90;;;-0.70;99.90;;;;;;5058095;28;20428;-89
2024/01/17 08:53:39;;;;;;;14.57;7.63;;;-0.80;99.90;;;;;;5071798;28;20470;-87
2024/01/17 08:56:05;;;;;;;14.85;7.78;;;-0.80;99.90;;;;;;5070689;28;20033;-86
2024/01/17 08:58:31;;;;;;;14.88;7.65;;;-0.80;99.90;;;;;;5064568;28;20051;-87
2024/01/17 09:00:57;;;;;;;12.20;7.22;;;-0.80;99.90;;;;;;5067764;28;20090;-87
2024/01/17 09:03:23;;;;;;;13.77;7.75;;;-0.80;99.90;;;;;;5068283;28;20432;-87
2024/01/17 09:05:49;;;;;;;14.90;7.95;;;-0.80;99.90;;;;;;5056463;28;20021;-86
2024/01/17 09:08:14;;;;;;;14.07;8.00;;;-0.80;99.90;;;;;;5068917;28;20033;-84
2024/01/17 09:10:40;;;;;;;15.23;8.07;;;-0.80;99.90;;;;;;5065351;28;20024;-83
2024/01/17 09:13:06;;;;;;;14.75;7.72;;;-0.70;99.90;;;;;;5064194;28;20112;-85
2024/01/17 09:15:32;;;;;;;14.13;8.10;;;-0.70;99.90;;;;;;5068386;28;20545;-85
2024/01/17 09:17:58;;;;;;;18.80;8.15;;;-0.70;99.90;;;;;;5054940;28;20033;-84
2024/01/17 09:20:24;;;;;;;14.77;7.55;;;-0.70;99.90;;;;;;5067217;28;20024;-85
2024/01/17 09:22:50;;;;;;;13.10;7.32;;;-0.60;99.90;;;;;;5057993;28;20553;-84
2024/01/17 09:25:17;;;;;;;13.90;7.10;;;-0.60;99.90;;;;;;5058150;28;20029;-86
2024/01/17 09:27:43;;;;;;;12.45;7.00;;;-0.60;99.90;;;;;;5057325;28;20359;-85
2024/01/17 09:30:09;;;;;;;16.40;7.38;;;-0.60;99.90;;;;;;5063855;28;20482;-85
2024/01/17 09:32:35;;;;;;;17.20;8.40;;;-0.50;99.90;;;;;;5066792;28;20036;-86
2024/01/17 09:35:01;;;;;;;15.18;7.55;;;-0.50;99.90;;;;;;5053023;28;20074;-86
2024/01/17 09:37:27;;;;;;;15.20;8.50;;;-0.50;99.90;;;;;;5067608;28;20456;-86
2024/01/17 09:39:53;;;;;;;19.13;8.20;;;-0.50;99.90;;;;;;5062411;28;20040;-86
2024/01/17 09:42:20;;;;;;;14.55;7.28;;;-0.40;99.90;;;;;;5059945;28;20478;-86
2024/01/17 09:44:46;;;;;;;15.23;7.78;;;-0.40;99.90;;;;;;5056969;28;20013;-85
2024/01/17 09:47:19;;;;;;;13.73;7.47;;;-0.40;99.90;;;;;;5061396;28;20021;-85
2024/01/17 09:49:45;;;;;;;14.35;7.50;;;-0.30;99.90;;;;;;5061920;28;20036;-85
2024/01/17 09:52:13;;;;;;;19.80;8.25;;;-0.30;99.90;;;;;;5058724;28;20037;-85
2024/01/17 09:54:45;;;;;;;12.02;7.20;;;-0.30;99.90;;;;;;5053390;28;20051;-85
2024/01/17 09:57:23;;;;;;;14.82;7.45;;;-0.30;99.90;;;;;;5058239;28;20237;-85
2024/01/17 09:59:59;;;;;;;14.30;6.97;;;-0.30;99.90;;;;;;5061810;28;20024;-85
2024/01/17 10:02:27;;;;;;;13.85;7.80;;;-0.20;99.90;;;;;;5057118;28;20028;-85
2024/01/17 10:04:53;;;;;;;14.05;8.13;;;-0.10;99.90;;;;;;5067672;28;20032;-85
2024/01/17 10:07:19;;;;;;;14.98;7.55;;;-0.10;99.90;;;;;;5057286;28;20402;-85
2024/01/17 10:09:46;;;;;;;16.42;7.30;;;-0.10;99.90;;;;;;5059934;28;20020;-85
2024/01/17 10:12:13;;;;;;;15.52;8.05;;;-0.10;99.90;;;;;;5054741;28;20027;-85
2024/01/17 10:14:42;;;;;;;12.98;7.85;;;-0.10;99.90;;;;;;5052302;28;20029;-85
2024/01/17 10:17:09;;;;;;;12.43;7.35;;;0.00;99.90;;;;;;5061203;28;20025;-84
2024/01/17 10:19:34;;;;;;;15.93;8.57;;;0.00;99.90;;;;;;5059135;28;20028;-84
2024/01/17 10:22:04;;;;;;;15.77;7.78;;;0.00;99.90;;;;;;5053035;28;20042;-84
2024/01/17 10:24:35;;;;;;;13.10;7.72;;;0.00;99.90;;;;;;5056488;28;20456;-85
2024/01/17 10:27:05;;;;;;;13.13;7.20;;;0.00;99.90;;;;;;5050792;28;20107;-85
2024/01/17 10:29:31;;;;;;;15.60;8.25;;;0.00;99.90;;;;;;5065576;28;20024;-84
2024/01/17 10:32:00;;;;;;;12.02;7.55;;;0.10;99.90;;;;;;5054919;28;20067;-84
2024/01/17 10:34:29;;;;;;;17.00;8.02;;;0.10;99.90;;;;;;5059449;28;20024;-84
2024/01/17 10:36:55;;;;;;;15.20;8.35;;;0.10;99.90;;;;;;5061722;28;20016;-84
2024/01/17 10:39:21;;;;;;;17.05;8.45;;;0.20;99.90;;;;;;5059861;28;20037;-84
2024/01/17 10:41:54;;;;;;;17.33;7.90;;;0.20;99.90;;;;;;5066249;28;20534;-84
2024/01/17 10:44:20;;;;;;;15.50;7.82;;;0.20;99.90;;;;;;5047153;28;20025;-84
2024/01/17 10:46:55;;;;;;;15.23;8.05;;;0.20;99.90;;;;;;5058749;28;20020;-85
2024/01/17 10:49:22;;;;;;;14.55;7.80;;;0.20;99.90;;;;;;5061259;28;20067;-84
2024/01/17 10:52:13;;;;;;;16.27;8.80;;;0.30;99.90;;;;;;5054016;28;20428;-83
2024/01/17 10:54:51;;;;;;;16.88;8.13;;;0.30;99.90;;;;;;5052493;28;20115;-83
2024/01/17 10:57:20;;;;;;;17.88;7.82;;;0.30;99.90;;;;;;5065681;28;20033;-83
2024/01/17 10:59:50;;;;;;;15.90;7.60;;;0.30;99.90;;;;;;5050648;28;20036;-84
2024/01/17 11:02:20;;;;;;;15.27;8.50;;;0.30;99.90;;;;;;5065751;28;20012;-84
2024/01/17 11:05:03;;;;;;;16.05;8.50;;;0.30;99.90;;;;;;5051477;28;20025;-84
2024/01/17 11:07:31;;;;;;;15.07;8.15;;;0.30;99.90;;;;;;5057753;28;20055;-84
2024/01/17 11:10:00;;;;;;;16.52;8.23;;;0.30;99.90;;;;;;5063657;28;20492;-84
2024/01/17 11:12:28;;;;;;;16.45;8.30;;;0.30;99.90;;;;;;5060332;28;20063;-84
2024/01/17 11:14:57;;;;;;;14.10;8.02;;;0.30;99.90;;;;;;5069899;28;20087;-83
2024/01/17 11:17:24;;;;;;;16.17;8.07;;;0.30;99.90;;;;;;5055081;28;20120;-84
2024/01/17 11:19:51;;;;;;;18.65;9.10;;;0.40;99.90;;;;;;5064031;28;20027;-83
2024/01/17 11:22:18;;;;;;;15.68;8.00;;;0.40;99.90;;;;;;5056936;28;20078;-84
2024/01/17 11:25:20;;;;;;;11.90;7.15;;;0.40;99.90;;;;;;5058053;28;20116;-85
2024/01/17 11:27:59;;;;;;;16.60;7.60;;;0.50;99.90;;;;;;5060121;28;20025;-84
2024/01/17 11:30:54;;;;;;;15.80;7.93;;;0.50;99.90;;;;;;5070548;28;20029;-84
2024/01/17 11:33:20;;;;;;;12.82;7.20;;;0.60;99.90;;;;;;5057132;28;20696;-84
2024/01/17 11:35:49;;;;;;;15.38;7.43;;;0.60;99.90;;;;;;5067081;28;20025;-84
2024/01/17 11:38:24;;;;;;;14.10;8.05;;;0.60;99.90;;;;;;5070452;28;20047;-84
2024/01/17 11:40:53;;;;;;;13.75;7.65;;;0.70;99.90;;;;;;5062218;28;20116;-84
2024/01/17 11:43:23;;;;;;;12.73;7.85;;;0.70;99.90;;;;;;5058776;28;20051;-83
2024/01/17 11:45:53;;;;;;;15.70;8.00;;;0.70;99.90;;;;;;5064128;28;20025;-84
2024/01/17 11:48:26;;;;;;;16.67;7.23;;;0.80;99.90;;;;;;5052551;28;20410;-83
2024/01/17 11:51:01;;;;;;;14.80;7.70;;;0.80;99.90;;;;;;5064194;28;20519;-83
2024/01/17 11:53:28;;;;;;;13.85;7.57;;;0.80;99.90;;;;;;5056956;28;20032;-83
2024/01/17 11:55:56;;;;;;;12.77;7.80;;;0.80;99.90;;;;;;5055965;28;20475;-84
2024/01/17 11:58:22;;;;;;;15.35;7.30;;;0.80;99.90;;;;;;5064317;28;20177;-82
2024/01/17 12:00:52;;;;;;;13.43;7.60;;;0.80;99.90;;;;;;5061277;28;20027;-84
2024/01/17 12:03:31;;;;;;;14.27;7.82;;;0.80;99.90;;;;;;5057908;28;20120;-84
2024/01/17 12:05:57;;;;;;;14.18;7.82;;;0.90;99.90;;;;;;5062163;28;20232;-83
2024/01/17 12:08:23;;;;;;;14.95;7.82;;;0.90;99.90;;;;;;5065036;28;20433;-84
2024/01/17 12:10:56;;;;;;;16.63;8.55;;;0.90;99.90;;;;;;5061419;28;20025;-83
2024/01/17 12:13:23;;;;;;;15.48;7.82;;;0.90;99.90;;;;;;5059631;28;20021;-83
2024/01/17 12:15:55;;;;;;;17.77;8.52;;;0.90;99.90;;;;;;5067475;28;20112;-82
2024/01/17 12:18:23;;;;;;;11.55;7.90;;;0.90;99.90;;;;;;5068534;28;20032;-83
2024/01/17 12:20:50;;;;;;;18.42;8.60;;;0.90;99.90;;;;;;5066124;28;20028;-85
2024/01/17 12:23:19;;;;;;;18.17;8.75;;;0.90;99.90;;;;;;5058497;28;20480;-82
2024/01/17 12:25:45;;;;;;;14.68;8.00;;;0.90;99.90;;;;;;5068580;28;20017;-84
2024/01/17 12:28:17;;;;;;;18.95;9.27;;;0.90;99.90;;;;;;5073067;28;20029;-84
2024/01/17 12:31:03;;;;;;;12.68;7.53;;;0.90;99.90;;;;;;5075228;28;20060;-83
2024/01/17 12:33:34;;;;;;;18.13;8.32;;;0.90;99.90;;;;;;5072136;28;20029;-85
2024/01/17 12:36:01;;;;;;;;;;;0.90;99.90;;;;;;5064068;28;20067;-84
2024/01/17 12:38:28;;;;;;;13.93;6.93;;;0.90;99.90;;;;;;5062125;28;19904;-84